sensor_id;sensor_type;location;lat;lon;timestamp;pressure;altitude;pressure_sealevel;temperature;humidity
48614;BME280;34408;51.426;5.444;2023-02-11T00:01:20;103447.06;;;8.06;65.29
48614;BME280;34408;51.426;5.444;2023-02-11T00:03:48;103442.69;;;8.05;65.51
48614;BME280;34408;51.426;5.444;2023-02-11T00:06:16;103435.78;;;8.03;64.79
48614;BME280;34408;51.426;5.444;2023-02-11T00:08:45;103429.44;;;8.04;64.97
48614;BME280;34408;51.426;5.444;2023-02-11T00:11:15;103427.75;;;8.03;64.85
48614;BME280;34408;51.426;5.444;2023-02-11T00:13:45;103415.22;;;8.03;65.16
48614;BME280;34408;51.426;5.444;2023-02-11T00:16:14;103415.22;;;8.03;64.76
48614;BME280;34408;51.426;5.444;2023-02-11T00:18:43;103404.66;;;8.02;65.35
48614;BME280;34408;51.426;5.444;2023-02-11T00:21:13;103409.00;;;8.03;64.90
48614;BME280;34408;51.426;5.444;2023-02-11T00:23:42;103398.44;;;8.01;65.13
48614;BME280;34408;51.426;5.444;2023-02-11T00:26:11;103402.25;;;7.99;65.29
48614;BME280;34408;51.426;5.444;2023-02-11T00:28:40;103399.56;;;7.99;64.88
48614;BME280;34408;51.426;5.444;2023-02-11T00:31:08;103400.56;;;7.98;64.83
48614;BME280;34408;51.426;5.444;2023-02-11T00:33:37;103398.72;;;7.98;65.37
48614;BME280;34408;51.426;5.444;2023-02-11T00:36:06;103402.41;;;7.97;65.27
48614;BME280;34408;51.426;5.444;2023-02-11T00:38:34;103404.22;;;7.97;64.77
48614;BME280;34408;51.426;5.444;2023-02-11T00:41:03;103396.34;;;7.95;65.20
48614;BME280;34408;51.426;5.444;2023-02-11T00:43:30;103395.34;;;7.96;65.11
48614;BME280;34408;51.426;5.444;2023-02-11T00:46:00;103392.81;;;7.95;64.74
48614;BME280;34408;51.426;5.444;2023-02-11T00:48:28;103388.72;;;7.91;65.23
48614;BME280;34408;51.426;5.444;2023-02-11T00:50:55;103395.63;;;7.93;65.47
48614;BME280;34408;51.426;5.444;2023-02-11T00:53:23;103390.41;;;7.92;64.75
48614;BME280;34408;51.426;5.444;2023-02-11T00:55:51;103390.41;;;7.92;64.86
48614;BME280;34408;51.426;5.444;2023-02-11T00:58:19;103385.06;;;7.92;65.31
48614;BME280;34408;51.426;5.444;2023-02-11T01:00:48;103388.72;;;7.91;64.90
48614;BME280;34408;51.426;5.444;2023-02-11T01:03:17;103392.25;;;7.91;65.06
48614;BME280;34408;51.426;5.444;2023-02-11T01:05:45;103402.13;;;7.91;65.10
48614;BME280;34408;51.426;5.444;2023-02-11T01:08:13;103401.28;;;7.90;64.89
48614;BME280;34408;51.426;5.444;2023-02-11T01:10:40;103412.13;;;7.89;64.99
48614;BME280;34408;51.426;5.444;2023-02-11T01:13:09;103405.63;;;7.91;64.73
48614;BME280;34408;51.426;5.444;2023-02-11T01:15:37;103407.31;;;7.92;64.80
48614;BME280;34408;51.426;5.444;2023-02-11T01:18:05;103402.13;;;7.91;65.19
48614;BME280;34408;51.426;5.444;2023-02-11T01:20:34;103409.16;;;7.92;64.80
48614;BME280;34408;51.426;5.444;2023-02-11T01:23:02;103409.16;;;7.92;65.15
48614;BME280;34408;51.426;5.444;2023-02-11T01:25:29;103413.66;;;7.91;64.85
48614;BME280;34408;51.426;5.444;2023-02-11T01:27:57;103401.28;;;7.90;65.01
48614;BME280;34408;51.426;5.444;2023-02-11T01:30:25;103403.94;;;7.90;65.38
48614;BME280;34408;51.426;5.444;2023-02-11T01:32:53;103399.44;;;7.91;65.14
48614;BME280;34408;51.426;5.444;2023-02-11T01:35:20;103405.63;;;7.91;65.07
48614;BME280;34408;51.426;5.444;2023-02-11T01:37:50;103411.84;;;7.92;64.94
48614;BME280;34408;51.426;5.444;2023-02-11T01:40:18;103418.19;;;7.91;64.87
48614;BME280;34408;51.426;5.444;2023-02-11T01:42:45;103414.81;;;7.89;65.44
48614;BME280;34408;51.426;5.444;2023-02-11T01:45:49;103418.19;;;7.91;64.87
48614;BME280;34408;51.426;5.444;2023-02-11T01:48:21;103407.47;;;7.91;65.01
48614;BME280;34408;51.426;5.444;2023-02-11T01:50:54;103395.06;;;7.90;65.03
48614;BME280;34408;51.426;5.444;2023-02-11T01:53:26;103397.75;;;7.90;65.24
48614;BME280;34408;51.426;5.444;2023-02-11T01:56:14;103394.22;;;7.89;64.89
48614;BME280;34408;51.426;5.444;2023-02-11T01:59:06;103388.03;;;7.89;65.26
48614;BME280;34408;51.426;5.444;2023-02-11T02:01:36;103398.88;;;7.87;65.12
48614;BME280;34408;51.426;5.444;2023-02-11T02:04:07;103382.81;;;7.87;64.95
48614;BME280;34408;51.426;5.444;2023-02-11T02:06:40;103372.94;;;7.88;65.46
48614;BME280;34408;51.426;5.444;2023-02-11T02:09:15;103367.75;;;7.86;64.79
48614;BME280;34408;51.426;5.444;2023-02-11T02:11:45;103377.47;;;7.87;64.85
48614;BME280;34408;51.426;5.444;2023-02-11T02:14:12;103373.09;;;7.86;65.49
48614;BME280;34408;51.426;5.444;2023-02-11T02:16:40;103372.09;;;7.87;65.61
48614;BME280;34408;51.426;5.444;2023-02-11T02:19:43;103377.59;;;7.86;65.15
48614;BME280;34408;51.426;5.444;2023-02-11T02:22:49;103379.28;;;7.87;64.93
48614;BME280;34408;51.426;5.444;2023-02-11T02:25:34;103382.25;;;7.83;65.36
48614;BME280;34408;51.426;5.444;2023-02-11T02:28:12;103389.28;;;7.84;65.22
48614;BME280;34408;51.426;5.444;2023-02-11T02:31:02;103375.91;;;7.84;65.55
48614;BME280;34408;51.426;5.444;2023-02-11T02:33:41;103372.53;;;7.82;64.94
48614;BME280;34408;51.426;5.444;2023-02-11T02:36:16;103372.53;;;7.82;65.00
48614;BME280;34408;51.426;5.444;2023-02-11T02:38:51;103374.22;;;7.83;65.01
48614;BME280;34408;51.426;5.444;2023-02-11T02:41:23;103374.34;;;7.82;65.13
48614;BME280;34408;51.426;5.444;2023-02-11T02:43:53;103377.88;;;7.82;65.63
48614;BME280;34408;51.426;5.444;2023-02-11T02:46:23;103379.72;;;7.82;65.52
48614;BME280;34408;51.426;5.444;2023-02-11T02:48:53;103376.19;;;7.81;66.15
48614;BME280;34408;51.426;5.444;2023-02-11T02:51:38;103378.72;;;7.83;65.35
48614;BME280;34408;51.426;5.444;2023-02-11T02:54:34;103363.66;;;7.82;65.08
48614;BME280;34408;51.426;5.444;2023-02-11T02:57:19;103357.44;;;7.81;65.21
48614;BME280;34408;51.426;5.444;2023-02-11T03:00:01;103347.72;;;7.80;65.20
48614;BME280;34408;51.426;5.444;2023-02-11T03:02:34;103359.13;;;7.82;65.09
48614;BME280;34408;51.426;5.444;2023-02-11T03:05:09;103356.47;;;7.82;65.69
48614;BME280;34408;51.426;5.444;2023-02-11T03:07:41;103364.50;;;7.82;65.43
48614;BME280;34408;51.426;5.444;2023-02-11T03:10:13;103370.69;;;7.83;65.72
48614;BME280;34408;51.426;5.444;2023-02-11T03:12:43;103369.00;;;7.82;65.93
48614;BME280;34408;51.426;5.444;2023-02-11T03:15:13;103367.31;;;7.81;65.50
48614;BME280;34408;51.426;5.444;2023-02-11T03:17:45;103362.81;;;7.81;65.34
48614;BME280;34408;51.426;5.444;2023-02-11T03:20:17;103359.28;;;7.81;66.00
48614;BME280;34408;51.426;5.444;2023-02-11T03:22:53;103354.78;;;7.81;65.84
48614;BME280;34408;51.426;5.444;2023-02-11T03:25:26;103355.63;;;7.82;65.96
48614;BME280;34408;51.426;5.444;2023-02-11T03:28:01;103356.47;;;7.82;65.52
48614;BME280;34408;51.426;5.444;2023-02-11T03:30:33;103362.81;;;7.81;65.95
48614;BME280;34408;51.426;5.444;2023-02-11T03:33:07;103355.75;;;7.80;65.31
48614;BME280;34408;51.426;5.444;2023-02-11T03:35:42;103355.75;;;7.80;65.48
48614;BME280;34408;51.426;5.444;2023-02-11T03:38:16;103351.69;;;7.76;65.65
48614;BME280;34408;51.426;5.444;2023-02-11T03:40:46;103357.72;;;7.78;65.85
48614;BME280;34408;51.426;5.444;2023-02-11T03:43:17;103361.41;;;7.77;66.14
48614;BME280;34408;51.426;5.444;2023-02-11T03:45:46;103359.44;;;7.79;65.75
48614;BME280;34408;51.426;5.444;2023-02-11T03:48:19;103363.94;;;7.79;65.35
48614;BME280;34408;51.426;5.444;2023-02-11T03:50:51;103363.94;;;7.79;66.13
48614;BME280;34408;51.426;5.444;2023-02-11T03:53:20;103360.41;;;7.78;66.07
48614;BME280;34408;51.426;5.444;2023-02-11T03:55:50;103365.19;;;7.75;65.58
48614;BME280;34408;51.426;5.444;2023-02-11T03:58:19;103371.25;;;7.77;65.99
48614;BME280;34408;51.426;5.444;2023-02-11T04:00:48;103357.88;;;7.77;65.93
48614;BME280;34408;51.426;5.444;2023-02-11T04:03:16;103354.34;;;7.76;65.85
48614;BME280;34408;51.426;5.444;2023-02-11T04:05:44;103357.88;;;7.77;66.13
48614;BME280;34408;51.426;5.444;2023-02-11T04:08:13;103359.72;;;7.76;66.31
48614;BME280;34408;51.426;5.444;2023-02-11T04:10:41;103363.22;;;7.77;66.48
48614;BME280;34408;51.426;5.444;2023-02-11T04:13:09;103360.56;;;7.77;66.04
48614;BME280;34408;51.426;5.444;2023-02-11T04:15:36;103346.19;;;7.78;66.09
48614;BME280;34408;51.426;5.444;2023-02-11T04:18:04;103328.59;;;7.66;66.07
48614;BME280;34408;51.426;5.444;2023-02-11T04:20:32;103334.78;;;7.76;66.36
48614;BME280;34408;51.426;5.444;2023-02-11T04:23:00;103335.75;;;7.75;66.06
48614;BME280;34408;51.426;5.444;2023-02-11T04:25:29;103332.94;;;7.76;65.60
48614;BME280;34408;51.426;5.444;2023-02-11T04:27:57;103325.06;;;7.75;65.65
48614;BME280;34408;51.426;5.444;2023-02-11T04:30:24;103336.59;;;7.75;65.79
48614;BME280;34408;51.426;5.444;2023-02-11T04:32:52;103325.91;;;7.75;65.77
48614;BME280;34408;51.426;5.444;2023-02-11T04:35:20;103319.69;;;7.75;66.00
48614;BME280;34408;51.426;5.444;2023-02-11T04:37:48;103328.44;;;7.77;66.07
48614;BME280;34408;51.426;5.444;2023-02-11T04:40:16;103325.06;;;7.75;66.18
48614;BME280;34408;51.426;5.444;2023-02-11T04:42:45;103327.44;;;7.78;66.70
48614;BME280;34408;51.426;5.444;2023-02-11T04:45:12;103332.94;;;7.76;66.45
48614;BME280;34408;51.426;5.444;2023-02-11T04:47:40;103334.78;;;7.76;65.82
48614;BME280;34408;51.426;5.444;2023-02-11T04:50:08;103343.50;;;7.78;66.18
48614;BME280;34408;51.426;5.444;2023-02-11T04:52:36;103342.66;;;7.77;65.77
48614;BME280;34408;51.426;5.444;2023-02-11T04:55:04;103338.28;;;7.76;66.14
48614;BME280;34408;51.426;5.444;2023-02-11T04:57:32;103338.16;;;7.78;65.97
48614;BME280;34408;51.426;5.444;2023-02-11T05:00:02;103339.13;;;7.77;66.59
48614;BME280;34408;51.426;5.444;2023-02-11T05:02:30;103342.66;;;7.77;66.41
48614;BME280;34408;51.426;5.444;2023-02-11T05:04:57;103344.50;;;7.77;66.29
48614;BME280;34408;51.426;5.444;2023-02-11T05:07:25;103345.34;;;7.77;66.48
48614;BME280;34408;51.426;5.444;2023-02-11T05:09:53;103345.47;;;7.76;65.99
48614;BME280;34408;51.426;5.444;2023-02-11T05:12:21;103343.78;;;7.75;66.78
48614;BME280;34408;51.426;5.444;2023-02-11T05:14:48;103348.00;;;7.77;66.23
48614;BME280;34408;51.426;5.444;2023-02-11T05:17:18;103351.69;;;7.76;66.84
48614;BME280;34408;51.426;5.444;2023-02-11T05:19:45;103347.31;;;7.75;66.37
48614;BME280;34408;51.426;5.444;2023-02-11T05:22:13;103339.41;;;7.74;66.74
48614;BME280;34408;51.426;5.444;2023-02-11T05:24:41;103338.44;;;7.75;66.13
48614;BME280;34408;51.426;5.444;2023-02-11T05:27:08;103343.94;;;7.73;66.77
48614;BME280;34408;51.426;5.444;2023-02-11T05:29:36;103339.41;;;7.74;66.71
48614;BME280;34408;51.426;5.444;2023-02-11T05:32:04;103335.91;;;7.73;66.09
48614;BME280;34408;51.426;5.444;2023-02-11T05:34:34;103333.22;;;7.73;66.11
48614;BME280;34408;51.426;5.444;2023-02-11T05:37:02;103332.38;;;7.73;66.17
48614;BME280;34408;51.426;5.444;2023-02-11T05:39:29;103325.34;;;7.72;66.33
48614;BME280;34408;51.426;5.444;2023-02-11T05:41:57;103325.34;;;7.72;66.29
48614;BME280;34408;51.426;5.444;2023-02-11T05:44:25;103325.34;;;7.72;67.02
48614;BME280;34408;51.426;5.444;2023-02-11T05:46:53;103330.56;;;7.73;66.62
48614;BME280;34408;51.426;5.444;2023-02-11T05:49:20;103326.19;;;7.72;66.05
48614;BME280;34408;51.426;5.444;2023-02-11T05:51:49;103326.19;;;7.72;66.46
48614;BME280;34408;51.426;5.444;2023-02-11T05:54:17;103325.34;;;7.72;66.67
48614;BME280;34408;51.426;5.444;2023-02-11T05:56:45;103320.84;;;7.72;66.18
48614;BME280;34408;51.426;5.444;2023-02-11T05:59:14;103327.03;;;7.73;66.82
48614;BME280;34408;51.426;5.444;2023-02-11T06:01:42;103329.84;;;7.71;66.58
48614;BME280;34408;51.426;5.444;2023-02-11T06:04:10;103334.50;;;7.79;67.14
48614;BME280;34408;51.426;5.444;2023-02-11T06:06:37;103336.03;;;7.91;65.99
48614;BME280;34408;51.426;5.444;2023-02-11T06:09:08;103339.78;;;8.08;65.51
48614;BME280;34408;51.426;5.444;2023-02-11T06:11:36;103338.34;;;8.23;65.24
48614;BME280;34408;51.426;5.444;2023-02-11T06:14:03;103337.78;;;8.39;64.84
48614;BME280;34408;51.426;5.444;2023-02-11T06:16:31;103341.53;;;8.56;63.79
48614;BME280;34408;51.426;5.444;2023-02-11T06:18:59;103341.63;;;8.64;63.28
48614;BME280;34408;51.426;5.444;2023-02-11T06:21:27;103335.28;;;8.65;63.02
48614;BME280;34408;51.426;5.444;2023-02-11T06:24:13;103338.41;;;8.60;64.10
48614;BME280;34408;51.426;5.444;2023-02-11T06:26:54;103326.03;;;8.50;64.18
48614;BME280;34408;51.426;5.444;2023-02-11T06:29:21;103337.78;;;8.39;65.27
48614;BME280;34408;51.426;5.444;2023-02-11T06:31:49;103347.34;;;8.32;65.42
48614;BME280;34408;51.426;5.444;2023-02-11T06:34:17;103352.44;;;8.25;65.28
48614;BME280;34408;51.426;5.444;2023-02-11T06:36:45;103352.03;;;8.20;65.89
48614;BME280;34408;51.426;5.444;2023-02-11T06:39:14;103347.97;;;8.16;65.69
48614;BME280;34408;51.426;5.444;2023-02-11T06:41:42;103344.72;;;8.12;66.57
48614;BME280;34408;51.426;5.444;2023-02-11T06:44:09;103340.50;;;8.10;66.07
48614;BME280;34408;51.426;5.444;2023-02-11T06:46:37;103339.09;;;8.06;66.13
48614;BME280;34408;51.426;5.444;2023-02-11T06:49:05;103345.59;;;8.03;65.95
48614;BME280;34408;51.426;5.444;2023-02-11T06:51:33;103351.22;;;8.00;65.94
48614;BME280;34408;51.426;5.444;2023-02-11T06:54:00;103354.06;;;7.99;66.18
48614;BME280;34408;51.426;5.444;2023-02-11T06:56:30;103353.34;;;7.97;66.69
48614;BME280;34408;51.426;5.444;2023-02-11T06:58:58;103360.53;;;7.96;66.65
48614;BME280;34408;51.426;5.444;2023-02-11T07:01:26;103360.81;;;7.93;66.20
48614;BME280;34408;51.426;5.444;2023-02-11T07:03:55;103360.81;;;7.93;66.36
48614;BME280;34408;51.426;5.444;2023-02-11T07:06:24;103369.00;;;7.92;66.24
48614;BME280;34408;51.426;5.444;2023-02-11T07:08:54;103350.28;;;7.82;66.82
48614;BME280;34408;51.426;5.444;2023-02-11T07:11:24;103362.25;;;7.88;66.81
48614;BME280;34408;51.426;5.444;2023-02-11T07:13:55;103376.63;;;7.87;66.86
48614;BME280;34408;51.426;5.444;2023-02-11T07:16:23;103379.44;;;7.85;66.97
48614;BME280;34408;51.426;5.444;2023-02-11T07:18:51;103373.22;;;7.84;66.74
48614;BME280;34408;51.426;5.444;2023-02-11T07:21:22;103382.97;;;7.86;66.75
48614;BME280;34408;51.426;5.444;2023-02-11T07:23:50;103380.28;;;7.86;67.51
48614;BME280;34408;51.426;5.444;2023-02-11T07:26:19;103383.94;;;7.84;67.17
48614;BME280;34408;51.426;5.444;2023-02-11T07:28:49;103378.59;;;7.84;67.07
48614;BME280;34408;51.426;5.444;2023-02-11T07:31:20;103379.44;;;7.85;67.02
48614;BME280;34408;51.426;5.444;2023-02-11T07:33:50;103382.25;;;7.83;67.42
48614;BME280;34408;51.426;5.444;2023-02-11T07:36:18;103385.78;;;7.84;66.98
48614;BME280;34408;51.426;5.444;2023-02-11T07:38:46;103379.72;;;7.82;67.02
48614;BME280;34408;51.426;5.444;2023-02-11T07:41:16;103379.72;;;7.82;67.93
48614;BME280;34408;51.426;5.444;2023-02-11T07:43:45;103380.56;;;7.82;67.39
48614;BME280;34408;51.426;5.444;2023-02-11T07:46:14;103380.69;;;7.81;67.79
48614;BME280;34408;51.426;5.444;2023-02-11T07:48:43;103395.78;;;7.92;67.46
48614;BME280;34408;51.426;5.444;2023-02-11T07:51:13;103393.66;;;8.05;67.13
48614;BME280;34408;51.426;5.444;2023-02-11T07:53:42;103400.97;;;8.22;66.44
48614;BME280;34408;51.426;5.444;2023-02-11T07:56:11;103393.91;;;8.40;65.98
48614;BME280;34408;51.426;5.444;2023-02-11T07:58:39;103398.25;;;8.51;66.60
48614;BME280;34408;51.426;5.444;2023-02-11T08:01:10;103397.84;;;8.73;66.03
48614;BME280;34408;51.426;5.444;2023-02-11T08:03:39;103390.03;;;8.90;64.96
48614;BME280;34408;51.426;5.444;2023-02-11T08:06:10;103391.06;;;9.06;63.86
48614;BME280;34408;51.426;5.444;2023-02-11T08:08:38;103404.44;;;9.16;63.79
48614;BME280;34408;51.426;5.444;2023-02-11T08:11:07;103402.19;;;9.11;63.66
48614;BME280;34408;51.426;5.444;2023-02-11T08:13:35;103408.31;;;9.04;64.70
48614;BME280;34408;51.426;5.444;2023-02-11T08:16:04;103405.25;;;8.89;64.85
48614;BME280;34408;51.426;5.444;2023-02-11T08:18:33;103403.75;;;8.77;65.28
48614;BME280;34408;51.426;5.444;2023-02-11T08:21:05;103419.03;;;8.67;65.53
48614;BME280;34408;51.426;5.444;2023-02-11T08:23:35;103423.63;;;8.57;66.20
48614;BME280;34408;51.426;5.444;2023-02-11T08:26:04;103429.56;;;8.51;66.18
48614;BME280;34408;51.426;5.444;2023-02-11T08:28:34;103422.09;;;8.44;66.53
48614;BME280;34408;51.426;5.444;2023-02-11T08:31:04;103425.22;;;8.40;67.10
48614;BME280;34408;51.426;5.444;2023-02-11T08:33:33;103424.66;;;8.36;67.26
48614;BME280;34408;51.426;5.444;2023-02-11T08:36:01;103425.91;;;8.32;66.63
48614;BME280;34408;51.426;5.444;2023-02-11T08:38:35;103424.50;;;8.28;67.33
48614;BME280;34408;51.426;5.444;2023-02-11T08:41:03;103433.53;;;8.27;67.37
48614;BME280;34408;51.426;5.444;2023-02-11T08:43:31;103437.34;;;8.25;67.48
48614;BME280;34408;51.426;5.444;2023-02-11T08:45:59;103427.75;;;8.22;67.98
48614;BME280;34408;51.426;5.444;2023-02-11T08:48:28;103435.06;;;8.20;67.51
48614;BME280;34408;51.426;5.444;2023-02-11T08:50:56;103431.13;;;8.14;67.98
48614;BME280;34408;51.426;5.444;2023-02-11T08:53:24;103444.25;;;8.18;67.83
48614;BME280;34408;51.426;5.444;2023-02-11T08:55:55;103434.66;;;8.15;68.65
48614;BME280;34408;51.426;5.444;2023-02-11T08:58:24;103436.63;;;8.13;68.14
48614;BME280;34408;51.426;5.444;2023-02-11T09:00:51;103437.63;;;8.12;68.10
48614;BME280;34408;51.426;5.444;2023-02-11T09:03:20;103435.78;;;8.12;67.63
48614;BME280;34408;51.426;5.444;2023-02-11T09:05:49;103437.75;;;8.10;67.96
48614;BME280;34408;51.426;5.444;2023-02-11T09:08:18;103437.91;;;8.09;68.29
48614;BME280;34408;51.426;5.444;2023-02-11T09:10:46;103434.38;;;8.08;68.11
48614;BME280;34408;51.426;5.444;2023-02-11T09:13:16;103439.88;;;8.07;68.50
48614;BME280;34408;51.426;5.444;2023-02-11T09:15:44;103439.03;;;8.06;68.95
48614;BME280;34408;51.426;5.444;2023-02-11T09:18:13;103438.06;;;8.07;68.63
48614;BME280;34408;51.426;5.444;2023-02-11T09:20:41;103442.56;;;8.07;68.65
48614;BME280;34408;51.426;5.444;2023-02-11T09:23:09;103444.25;;;8.08;69.06
48614;BME280;34408;51.426;5.444;2023-02-11T09:25:38;103452.44;;;8.06;68.84
48614;BME280;34408;51.426;5.444;2023-02-11T09:28:06;103456.94;;;8.06;68.89
48614;BME280;34408;51.426;5.444;2023-02-11T09:30:36;103447.06;;;8.06;69.17
48614;BME280;34408;51.426;5.444;2023-02-11T09:33:04;103456.22;;;8.13;69.96
48614;BME280;34408;51.426;5.444;2023-02-11T09:35:32;103456.50;;;8.30;68.55
48614;BME280;34408;51.426;5.444;2023-02-11T09:38:00;103453.81;;;8.49;68.11
48614;BME280;34408;51.426;5.444;2023-02-11T09:40:28;103467.69;;;8.72;67.17
48614;BME280;34408;51.426;5.444;2023-02-11T09:43:01;103454.69;;;8.87;66.73
48614;BME280;34408;51.426;5.444;2023-02-11T09:45:31;103462.09;;;9.02;66.03
48614;BME280;34408;51.426;5.444;2023-02-11T09:48:02;103469.41;;;9.10;66.42
48614;BME280;34408;51.426;5.444;2023-02-11T09:50:34;103472.25;;;9.08;65.42
48614;BME280;34408;51.426;5.444;2023-02-11T09:53:05;103480.03;;;9.02;65.96
48614;BME280;34408;51.426;5.444;2023-02-11T09:55:38;103478.38;;;8.91;66.24
48614;BME280;34408;51.426;5.444;2023-02-11T09:58:11;103475.56;;;8.83;66.69
48614;BME280;34408;51.426;5.444;2023-02-11T10:00:45;103475.59;;;8.73;67.53
48614;BME280;34408;51.426;5.444;2023-02-11T10:03:51;103481.53;;;8.67;67.83
48614;BME280;34408;51.426;5.444;2023-02-11T10:06:40;103480.31;;;8.62;68.13
48614;BME280;34408;51.426;5.444;2023-02-11T10:09:27;103481.59;;;8.58;68.27
48614;BME280;34408;51.426;5.444;2023-02-11T10:12:10;103490.78;;;8.55;68.25
48614;BME280;34408;51.426;5.444;2023-02-11T10:14:56;103484.72;;;8.53;68.35
48614;BME280;34408;51.426;5.444;2023-02-11T10:17:36;103487.53;;;8.52;68.47
48614;BME280;34408;51.426;5.444;2023-02-11T10:20:20;103494.03;;;8.49;68.86
48614;BME280;34408;51.426;5.444;2023-02-11T10:22:53;103496.00;;;8.47;68.41
48614;BME280;34408;51.426;5.444;2023-02-11T10:25:23;103498.81;;;8.45;68.70
48614;BME280;34408;51.426;5.444;2023-02-11T10:27:54;103505.16;;;8.44;69.07
48614;BME280;34408;51.426;5.444;2023-02-11T10:30:28;103518.56;;;8.44;69.18
48614;BME280;34408;51.426;5.444;2023-02-11T10:33:01;103522.38;;;8.42;69.42
48614;BME280;34408;51.426;5.444;2023-02-11T10:35:31;103526.19;;;8.39;69.26
48614;BME280;34408;51.426;5.444;2023-02-11T10:37:59;103521.81;;;8.38;69.47
48614;BME280;34408;51.426;5.444;2023-02-11T10:40:29;103516.31;;;8.40;68.99
48614;BME280;34408;51.426;5.444;2023-02-11T10:43:00;103517.44;;;8.37;69.14
48614;BME280;34408;51.426;5.444;2023-02-11T10:45:32;103515.63;;;8.38;69.72
48614;BME280;34408;51.426;5.444;2023-02-11T10:48:04;103515.63;;;8.38;69.57
48614;BME280;34408;51.426;5.444;2023-02-11T10:50:34;103518.44;;;8.36;69.58
48614;BME280;34408;51.426;5.444;2023-02-11T10:53:11;103520.13;;;8.37;70.01
48614;BME280;34408;51.426;5.444;2023-02-11T10:55:48;103524.63;;;8.37;70.20
48614;BME280;34408;51.426;5.444;2023-02-11T10:58:23;103529.84;;;8.38;70.87
48614;BME280;34408;51.426;5.444;2023-02-11T11:00:53;103529.84;;;8.48;69.60
48614;BME280;34408;51.426;5.444;2023-02-11T11:03:23;103531.94;;;8.64;68.95
48614;BME280;34408;51.426;5.444;2023-02-11T11:05:55;103527.81;;;8.79;67.88
48614;BME280;34408;51.426;5.444;2023-02-11T11:08:37;103535.81;;;8.98;67.67
48614;BME280;34408;51.426;5.444;2023-02-11T11:11:08;103532.22;;;9.17;67.17
48614;BME280;34408;51.426;5.444;2023-02-11T11:13:37;103535.97;;;9.34;66.80
48614;BME280;34408;51.426;5.444;2023-02-11T11:16:18;103524.28;;;9.53;66.23
48614;BME280;34408;51.426;5.444;2023-02-11T11:18:48;103527.47;;;9.66;65.68
48614;BME280;34408;51.426;5.444;2023-02-11T11:21:21;103522.59;;;9.79;64.78
48614;BME280;34408;51.426;5.444;2023-02-11T11:23:52;103521.91;;;9.95;64.38
48614;BME280;34408;51.426;5.444;2023-02-11T11:26:21;103533.28;;;10.06;64.27
48614;BME280;34408;51.426;5.444;2023-02-11T11:28:52;103521.78;;;10.14;63.43
48614;BME280;34408;51.426;5.444;2023-02-11T11:31:24;103523.03;;;10.20;63.43
48614;BME280;34408;51.426;5.444;2023-02-11T11:33:55;103527.94;;;10.24;63.65
48614;BME280;34408;51.426;5.444;2023-02-11T11:36:33;103531.31;;;10.26;63.51
48614;BME280;34408;51.426;5.444;2023-02-11T11:39:11;103520.97;;;10.31;63.57
48614;BME280;34408;51.426;5.444;2023-02-11T11:41:49;103538.63;;;10.34;63.33
48614;BME280;34408;51.426;5.444;2023-02-11T11:44:23;103540.16;;;10.36;63.13
48614;BME280;34408;51.426;5.444;2023-02-11T11:47:06;103542.53;;;10.39;63.09
48614;BME280;34408;51.426;5.444;2023-02-11T11:49:44;103542.19;;;10.42;63.24
48614;BME280;34408;51.426;5.444;2023-02-11T11:52:19;103538.50;;;10.43;62.72
48614;BME280;34408;51.426;5.444;2023-02-11T11:54:59;103541.16;;;10.35;63.28
48614;BME280;34408;51.426;5.444;2023-02-11T11:57:28;103533.63;;;10.21;63.74
48614;BME280;34408;51.426;5.444;2023-02-11T11:59:56;103528.75;;;10.07;64.33
48614;BME280;34408;51.426;5.444;2023-02-11T12:02:46;103531.88;;;9.85;65.73
48614;BME280;34408;51.426;5.444;2023-02-11T12:05:25;103531.69;;;9.68;66.00
48614;BME280;34408;51.426;5.444;2023-02-11T12:08:05;103534.44;;;9.59;66.43
48614;BME280;34408;51.426;5.444;2023-02-11T12:10:55;103535.19;;;9.51;67.20
48614;BME280;34408;51.426;5.444;2023-02-11T12:13:36;103528.72;;;9.44;67.48
48614;BME280;34408;51.426;5.444;2023-02-11T12:16:21;103537.34;;;9.38;67.48
48614;BME280;34408;51.426;5.444;2023-02-11T12:19:38;103528.22;;;9.31;67.69
48614;BME280;34408;51.426;5.444;2023-02-11T12:22:15;103520.75;;;9.25;67.60
48614;BME280;34408;51.426;5.444;2023-02-11T12:24:53;103513.13;;;9.20;67.95
48614;BME280;34408;51.426;5.444;2023-02-11T12:27:34;103511.75;;;9.16;68.59
48614;BME280;34408;51.426;5.444;2023-02-11T12:30:19;103506.66;;;9.13;68.66
48614;BME280;34408;51.426;5.444;2023-02-11T12:32:54;103508.81;;;9.09;69.05
48614;BME280;34408;51.426;5.444;2023-02-11T12:35:30;103503.59;;;9.08;69.51
48614;BME280;34408;51.426;5.444;2023-02-11T12:38:14;103507.56;;;9.04;69.12
48614;BME280;34408;51.426;5.444;2023-02-11T12:40:56;103510.38;;;9.02;69.22
48614;BME280;34408;51.426;5.444;2023-02-11T12:43:33;103505.69;;;9.14;69.78
48614;BME280;34408;51.426;5.444;2023-02-11T12:46:16;103502.22;;;9.31;68.71
48614;BME280;34408;51.426;5.444;2023-02-11T12:51:54;103496.47;;;9.71;67.76
48614;BME280;34408;51.426;5.444;2023-02-11T12:54:29;103487.75;;;9.87;66.85
48614;BME280;34408;51.426;5.444;2023-02-11T12:57:02;103493.66;;;10.08;66.43
48614;BME280;34408;51.426;5.444;2023-02-11T12:59:42;103494.31;;;10.20;65.59
48614;BME280;34408;51.426;5.444;2023-02-11T13:02:20;103488.78;;;10.22;65.38
48614;BME280;34408;51.426;5.444;2023-02-11T13:04:54;103495.06;;;10.13;65.67
48614;BME280;34408;51.426;5.444;2023-02-11T13:07:27;103497.13;;;10.01;66.15
48614;BME280;34408;51.426;5.444;2023-02-11T13:09:59;103491.44;;;9.86;66.74
48614;BME280;34408;51.426;5.444;2023-02-11T13:12:32;103497.88;;;9.75;66.68
48614;BME280;34408;51.426;5.444;2023-02-11T13:15:19;103489.19;;;9.64;67.98
48614;BME280;34408;51.426;5.444;2023-02-11T13:17:53;103494.31;;;9.57;68.55
48614;BME280;34408;51.426;5.444;2023-02-11T13:20:33;103492.78;;;9.55;68.56
48614;BME280;34408;51.426;5.444;2023-02-11T13:23:09;103488.00;;;9.49;68.33
48614;BME280;34408;51.426;5.444;2023-02-11T13:25:42;103486.63;;;9.44;68.29
48614;BME280;34408;51.426;5.444;2023-02-11T13:28:29;103485.22;;;9.40;68.82